sensor_id;sensor_type;location;lat;lon;timestamp;P1;durP1;ratioP1;P2;durP2;ratioP2
56291;SDS011;54008;53.606;9.462;2022-09-03T00:00:32;2.10;;;0.85;;
56291;SDS011;54008;53.606;9.462;2022-09-03T00:03:08;1.63;;;0.82;;
56291;SDS011;54008;53.606;9.462;2022-09-03T00:05:46;6.35;;;1.00;;
56291;SDS011;54008;53.606;9.462;2022-09-03T00:11:10;2.80;;;1.10;;
56291;SDS011;54008;53.606;9.462;2022-09-03T00:13:41;2.88;;;0.98;;
56291;SDS011;54008;53.606;9.462;2022-09-03T00:16:12;3.25;;;1.00;;
56291;SDS011;54008;53.606;9.462;2022-09-03T00:18:44;1.92;;;0.98;;
56291;SDS011;54008;53.606;9.462;2022-09-03T00:21:15;4.95;;;1.27;;
56291;SDS011;54008;53.606;9.462;2022-09-03T00:23:46;2.88;;;1.20;;
56291;SDS011;54008;53.606;9.462;2022-09-03T00:26:18;1.42;;;0.98;;
56291;SDS011;54008;53.606;9.462;2022-09-03T00:28:53;3.30;;;0.93;;
56291;SDS011;54008;53.606;9.462;2022-09-03T00:31:31;2.47;;;1.02;;
56291;SDS011;54008;53.606;9.462;2022-09-03T00:34:45;1.15;;;0.77;;
56291;SDS011;54008;53.606;9.462;2022-09-03T00:36:54;3.80;;;1.00;;
56291;SDS011;54008;53.606;9.462;2022-09-03T00:39:21;2.05;;;0.88;;
56291;SDS011;54008;53.606;9.462;2022-09-03T00:50:26;3.63;;;0.93;;
56291;SDS011;54008;53.606;9.462;2022-09-03T00:55:51;5.05;;;1.30;;
56291;SDS011;54008;53.606;9.462;2022-09-03T01:01:00;3.22;;;1.50;;
56291;SDS011;54008;53.606;9.462;2022-09-03T01:06:49;5.15;;;1.90;;
56291;SDS011;54008;53.606;9.462;2022-09-03T01:09:28;3.58;;;1.83;;
56291;SDS011;54008;53.606;9.462;2022-09-03T01:12:10;4.38;;;2.17;;
56291;SDS011;54008;53.606;9.462;2022-09-03T01:14:58;6.18;;;2.80;;
56291;SDS011;54008;53.606;9.462;2022-09-03T01:20:36;6.10;;;2.40;;
56291;SDS011;54008;53.606;9.462;2022-09-03T01:23:25;6.60;;;2.90;;
56291;SDS011;54008;53.606;9.462;2022-09-03T01:26:02;7.68;;;3.05;;
56291;SDS011;54008;53.606;9.462;2022-09-03T01:28:48;4.68;;;2.90;;
56291;SDS011;54008;53.606;9.462;2022-09-03T01:31:28;5.88;;;2.90;;
56291;SDS011;54008;53.606;9.462;2022-09-03T01:36:34;8.52;;;2.95;;
56291;SDS011;54008;53.606;9.462;2022-09-03T01:39:44;5.00;;;2.90;;
56291;SDS011;54008;53.606;9.462;2022-09-03T01:42:21;5.78;;;2.25;;
56291;SDS011;54008;53.606;9.462;2022-09-03T01:50:32;8.07;;;2.72;;
56291;SDS011;54008;53.606;9.462;2022-09-03T01:53:09;6.78;;;2.83;;
56291;SDS011;54008;53.606;9.462;2022-09-03T01:58:50;6.88;;;2.85;;
56291;SDS011;54008;53.606;9.462;2022-09-03T02:01:28;7.32;;;2.53;;
56291;SDS011;54008;53.606;9.462;2022-09-03T02:03:56;6.38;;;2.92;;
56291;SDS011;54008;53.606;9.462;2022-09-03T02:06:24;7.65;;;3.03;;
56291;SDS011;54008;53.606;9.462;2022-09-03T02:08:55;9.02;;;3.17;;
56291;SDS011;54008;53.606;9.462;2022-09-03T02:11:20;11.47;;;2.93;;
56291;SDS011;54008;53.606;9.462;2022-09-03T02:13:46;6.17;;;2.47;;
56291;SDS011;54008;53.606;9.462;2022-09-03T02:16:21;9.25;;;2.95;;
56291;SDS011;54008;53.606;9.462;2022-09-03T02:18:59;11.18;;;3.50;;
56291;SDS011;54008;53.606;9.462;2022-09-03T02:21:31;5.82;;;3.03;;
56291;SDS011;54008;53.606;9.462;2022-09-03T02:26:24;5.47;;;2.65;;
56291;SDS011;54008;53.606;9.462;2022-09-03T02:28:50;7.33;;;2.50;;
56291;SDS011;54008;53.606;9.462;2022-09-03T02:31:17;6.13;;;2.95;;
56291;SDS011;54008;53.606;9.462;2022-09-03T02:33:43;9.50;;;2.85;;
56291;SDS011;54008;53.606;9.462;2022-09-03T02:36:12;7.30;;;2.83;;
56291;SDS011;54008;53.606;9.462;2022-09-03T02:38:40;5.78;;;2.67;;
56291;SDS011;54008;53.606;9.462;2022-09-03T02:41:07;5.78;;;2.50;;
56291;SDS011;54008;53.606;9.462;2022-09-03T02:46:03;6.03;;;2.67;;
56291;SDS011;54008;53.606;9.462;2022-09-03T02:48:32;5.57;;;2.75;;
56291;SDS011;54008;53.606;9.462;2022-09-03T02:50:57;4.60;;;2.53;;
56291;SDS011;54008;53.606;9.462;2022-09-03T02:53:23;6.20;;;2.42;;
56291;SDS011;54008;53.606;9.462;2022-09-03T02:55:48;5.40;;;2.33;;
56291;SDS011;54008;53.606;9.462;2022-09-03T02:58:14;5.28;;;2.28;;
56291;SDS011;54008;53.606;9.462;2022-09-03T03:00:40;4.35;;;2.00;;
56291;SDS011;54008;53.606;9.462;2022-09-03T03:03:06;4.03;;;2.00;;
56291;SDS011;54008;53.606;9.462;2022-09-03T03:05:42;3.25;;;1.73;;
56291;SDS011;54008;53.606;9.462;2022-09-03T03:08:10;9.38;;;2.70;;
56291;SDS011;54008;53.606;9.462;2022-09-03T03:10:38;5.43;;;2.13;;
56291;SDS011;54008;53.606;9.462;2022-09-03T03:13:04;4.57;;;2.20;;
56291;SDS011;54008;53.606;9.462;2022-09-03T03:15:29;4.82;;;2.22;;
56291;SDS011;54008;53.606;9.462;2022-09-03T03:17:55;5.30;;;1.93;;
56291;SDS011;54008;53.606;9.462;2022-09-03T03:20:21;5.25;;;2.50;;
56291;SDS011;54008;53.606;9.462;2022-09-03T03:22:46;4.10;;;2.10;;
56291;SDS011;54008;53.606;9.462;2022-09-03T03:25:12;6.15;;;1.88;;
56291;SDS011;54008;53.606;9.462;2022-09-03T03:27:37;6.00;;;1.70;;
56291;SDS011;54008;53.606;9.462;2022-09-03T03:30:04;4.32;;;1.92;;
56291;SDS011;54008;53.606;9.462;2022-09-03T03:32:33;4.07;;;1.80;;
56291;SDS011;54008;53.606;9.462;2022-09-03T03:34:58;5.00;;;1.90;;
56291;SDS011;54008;53.606;9.462;2022-09-03T03:37:23;5.23;;;2.00;;
56291;SDS011;54008;53.606;9.462;2022-09-03T03:39:49;4.07;;;2.10;;
56291;SDS011;54008;53.606;9.462;2022-09-03T03:42:14;5.23;;;1.83;;
56291;SDS011;54008;53.606;9.462;2022-09-03T03:44:39;3.80;;;1.80;;
56291;SDS011;54008;53.606;9.462;2022-09-03T03:47:06;2.95;;;1.52;;
56291;SDS011;54008;53.606;9.462;2022-09-03T03:49:31;2.60;;;1.67;;
56291;SDS011;54008;53.606;9.462;2022-09-03T03:51:56;3.45;;;2.10;;
56291;SDS011;54008;53.606;9.462;2022-09-03T03:54:22;3.70;;;1.73;;
56291;SDS011;54008;53.606;9.462;2022-09-03T03:56:47;4.00;;;1.50;;
56291;SDS011;54008;53.606;9.462;2022-09-03T03:59:12;3.40;;;1.42;;
56291;SDS011;54008;53.606;9.462;2022-09-03T04:01:37;3.88;;;1.48;;
56291;SDS011;54008;53.606;9.462;2022-09-03T04:04:03;2.93;;;1.40;;
56291;SDS011;54008;53.606;9.462;2022-09-03T04:06:29;6.10;;;1.50;;
56291;SDS011;54008;53.606;9.462;2022-09-03T04:08:54;2.88;;;1.35;;
56291;SDS011;54008;53.606;9.462;2022-09-03T04:11:21;3.35;;;1.50;;
56291;SDS011;54008;53.606;9.462;2022-09-03T04:13:47;4.60;;;1.80;;
56291;SDS011;54008;53.606;9.462;2022-09-03T04:16:17;4.45;;;1.58;;
56291;SDS011;54008;53.606;9.462;2022-09-03T04:18:44;2.10;;;1.38;;
56291;SDS011;54008;53.606;9.462;2022-09-03T04:21:15;4.55;;;1.30;;
56291;SDS011;54008;53.606;9.462;2022-09-03T04:23:43;6.32;;;1.63;;
56291;SDS011;54008;53.606;9.462;2022-09-03T04:26:10;3.05;;;1.20;;
56291;SDS011;54008;53.606;9.462;2022-09-03T04:28:38;3.67;;;1.40;;
56291;SDS011;54008;53.606;9.462;2022-09-03T04:31:04;4.30;;;1.23;;
56291;SDS011;54008;53.606;9.462;2022-09-03T04:33:31;4.18;;;1.63;;
56291;SDS011;54008;53.606;9.462;2022-09-03T04:36:02;2.92;;;1.23;;
56291;SDS011;54008;53.606;9.462;2022-09-03T04:38:38;2.53;;;1.23;;
56291;SDS011;54008;53.606;9.462;2022-09-03T04:41:06;1.98;;;1.20;;
56291;SDS011;54008;53.606;9.462;2022-09-03T04:43:34;5.90;;;1.70;;
56291;SDS011;54008;53.606;9.462;2022-09-03T04:46:01;3.10;;;1.17;;
56291;SDS011;54008;53.606;9.462;2022-09-03T04:48:29;2.20;;;1.25;;
56291;SDS011;54008;53.606;9.462;2022-09-03T04:51:17;2.00;;;1.30;;
56291;SDS011;54008;53.606;9.462;2022-09-03T04:53:43;2.60;;;1.50;;
56291;SDS011;54008;53.606;9.462;2022-09-03T04:58:46;1.65;;;1.17;;
56291;SDS011;54008;53.606;9.462;2022-09-03T05:01:17;4.72;;;1.55;;
56291;SDS011;54008;53.606;9.462;2022-09-03T05:03:44;4.15;;;1.38;;
56291;SDS011;54008;53.606;9.462;2022-09-03T05:06:09;2.42;;;1.10;;
56291;SDS011;54008;53.606;9.462;2022-09-03T05:08:36;1.73;;;1.40;;
56291;SDS011;54008;53.606;9.462;2022-09-03T05:11:02;1.48;;;1.33;;
56291;SDS011;54008;53.606;9.462;2022-09-03T05:13:29;3.75;;;1.50;;
56291;SDS011;54008;53.606;9.462;2022-09-03T05:15:58;5.70;;;1.40;;
56291;SDS011;54008;53.606;9.462;2022-09-03T05:18:34;5.68;;;1.75;;
56291;SDS011;54008;53.606;9.462;2022-09-03T05:21:01;1.42;;;1.08;;
56291;SDS011;54008;53.606;9.462;2022-09-03T05:23:28;2.42;;;1.42;;
56291;SDS011;54008;53.606;9.462;2022-09-03T05:25:58;2.97;;;1.20;;
56291;SDS011;54008;53.606;9.462;2022-09-03T05:28:25;3.97;;;1.20;;
56291;SDS011;54008;53.606;9.462;2022-09-03T05:31:01;3.80;;;1.02;;
56291;SDS011;54008;53.606;9.462;2022-09-03T05:33:28;3.08;;;1.60;;
56291;SDS011;54008;53.606;9.462;2022-09-03T05:35:59;2.20;;;1.20;;
56291;SDS011;54008;53.606;9.462;2022-09-03T05:38:25;5.47;;;1.27;;
56291;SDS011;54008;53.606;9.462;2022-09-03T05:40:51;3.00;;;1.20;;
56291;SDS011;54008;53.606;9.462;2022-09-03T05:43:16;4.60;;;1.30;;
56291;SDS011;54008;53.606;9.462;2022-09-03T05:45:41;6.10;;;1.67;;
56291;SDS011;54008;53.606;9.462;2022-09-03T05:48:07;3.17;;;1.45;;
56291;SDS011;54008;53.606;9.462;2022-09-03T05:50:32;2.47;;;1.30;;
56291;SDS011;54008;53.606;9.462;2022-09-03T05:52:57;3.33;;;1.25;;
56291;SDS011;54008;53.606;9.462;2022-09-03T05:55:22;4.45;;;1.50;;
56291;SDS011;54008;53.606;9.462;2022-09-03T05:57:50;2.43;;;1.27;;
56291;SDS011;54008;53.606;9.462;2022-09-03T06:00:16;2.95;;;1.20;;
56291;SDS011;54008;53.606;9.462;2022-09-03T06:02:43;2.47;;;1.20;;
56291;SDS011;54008;53.606;9.462;2022-09-03T06:05:14;3.83;;;1.58;;
56291;SDS011;54008;53.606;9.462;2022-09-03T06:07:40;2.88;;;1.30;;
56291;SDS011;54008;53.606;9.462;2022-09-03T06:10:06;3.17;;;1.40;;
56291;SDS011;54008;53.606;9.462;2022-09-03T06:12:32;3.15;;;1.23;;
56291;SDS011;54008;53.606;9.462;2022-09-03T06:14:57;4.30;;;1.50;;
56291;SDS011;54008;53.606;9.462;2022-09-03T06:17:22;4.38;;;1.90;;
56291;SDS011;54008;53.606;9.462;2022-09-03T06:19:48;4.97;;;1.27;;
56291;SDS011;54008;53.606;9.462;2022-09-03T06:22:13;3.10;;;1.33;;
56291;SDS011;54008;53.606;9.462;2022-09-03T06:24:38;4.28;;;1.60;;
56291;SDS011;54008;53.606;9.462;2022-09-03T06:27:04;4.57;;;1.20;;
56291;SDS011;54008;53.606;9.462;2022-09-03T06:29:29;4.13;;;1.80;;
56291;SDS011;54008;53.606;9.462;2022-09-03T06:31:54;6.47;;;1.40;;
56291;SDS011;54008;53.606;9.462;2022-09-03T06:34:20;2.20;;;1.40;;
56291;SDS011;54008;53.606;9.462;2022-09-03T06:36:46;3.25;;;1.38;;
56291;SDS011;54008;53.606;9.462;2022-09-03T06:39:11;2.22;;;1.67;;
56291;SDS011;54008;53.606;9.462;2022-09-03T06:41:37;2.72;;;1.50;;
56291;SDS011;54008;53.606;9.462;2022-09-03T06:44:04;7.32;;;1.20;;
56291;SDS011;54008;53.606;9.462;2022-09-03T06:46:35;5.00;;;1.02;;
56291;SDS011;54008;53.606;9.462;2022-09-03T06:49:02;4.32;;;1.40;;
56291;SDS011;54008;53.606;9.462;2022-09-03T06:51:28;3.75;;;1.23;;
56291;SDS011;54008;53.606;9.462;2022-09-03T06:54:00;3.67;;;1.23;;
56291;SDS011;54008;53.606;9.462;2022-09-03T06:56:27;2.05;;;1.10;;
56291;SDS011;54008;53.606;9.462;2022-09-03T06:58:53;6.15;;;1.35;;
56291;SDS011;54008;53.606;9.462;2022-09-03T07:01:22;2.33;;;1.27;;
56291;SDS011;54008;53.606;9.462;2022-09-03T07:03:58;5.32;;;1.67;;
56291;SDS011;54008;53.606;9.462;2022-09-03T07:06:25;6.43;;;1.58;;
56291;SDS011;54008;53.606;9.462;2022-09-03T07:11:22;3.33;;;1.52;;
56291;SDS011;54008;53.606;9.462;2022-09-03T07:13:51;2.80;;;1.48;;
56291;SDS011;54008;53.606;9.462;2022-09-03T07:16:18;3.42;;;1.10;;
56291;SDS011;54008;53.606;9.462;2022-09-03T07:18:46;2.53;;;1.38;;
56291;SDS011;54008;53.606;9.462;2022-09-03T07:21:13;4.03;;;1.58;;
56291;SDS011;54008;53.606;9.462;2022-09-03T07:23:40;2.92;;;1.55;;
56291;SDS011;54008;53.606;9.462;2022-09-03T07:26:07;5.93;;;1.63;;
56291;SDS011;54008;53.606;9.462;2022-09-03T07:28:35;3.33;;;1.10;;
56291;SDS011;54008;53.606;9.462;2022-09-03T07:31:03;1.75;;;1.30;;
56291;SDS011;54008;53.606;9.462;2022-09-03T07:33:30;3.70;;;1.05;;
56291;SDS011;54008;53.606;9.462;2022-09-03T07:36:01;2.90;;;1.40;;
56291;SDS011;54008;53.606;9.462;2022-09-03T07:38:28;2.40;;;1.20;;
56291;SDS011;54008;53.606;9.462;2022-09-03T07:40:56;3.63;;;1.03;;
56291;SDS011;54008;53.606;9.462;2022-09-03T07:43:31;3.72;;;1.02;;
56291;SDS011;54008;53.606;9.462;2022-09-03T07:45:59;4.47;;;1.35;;
56291;SDS011;54008;53.606;9.462;2022-09-03T07:48:25;4.38;;;1.17;;
56291;SDS011;54008;53.606;9.462;2022-09-03T07:50:50;2.50;;;1.30;;
56291;SDS011;54008;53.606;9.462;2022-09-03T07:53:16;4.05;;;1.25;;
56291;SDS011;54008;53.606;9.462;2022-09-03T07:55:42;4.80;;;1.50;;
56291;SDS011;54008;53.606;9.462;2022-09-03T07:58:10;3.22;;;1.17;;
56291;SDS011;54008;53.606;9.462;2022-09-03T08:00:36;4.75;;;1.27;;
56291;SDS011;54008;53.606;9.462;2022-09-03T08:03:02;7.15;;;1.70;;
56291;SDS011;54008;53.606;9.462;2022-09-03T08:05:32;11.05;;;1.83;;
56291;SDS011;54008;53.606;9.462;2022-09-03T08:08:04;8.20;;;1.45;;
56291;SDS011;54008;53.606;9.462;2022-09-03T08:10:33;4.07;;;1.27;;
56291;SDS011;54008;53.606;9.462;2022-09-03T08:13:03;1.98;;;0.95;;
56291;SDS011;54008;53.606;9.462;2022-09-03T08:15:29;4.57;;;1.65;;
56291;SDS011;54008;53.606;9.462;2022-09-03T08:17:55;2.35;;;1.65;;
56291;SDS011;54008;53.606;9.462;2022-09-03T08:20:20;3.63;;;1.20;;
56291;SDS011;54008;53.606;9.462;2022-09-03T08:22:45;2.35;;;1.20;;
56291;SDS011;54008;53.606;9.462;2022-09-03T08:25:10;3.97;;;1.40;;
56291;SDS011;54008;53.606;9.462;2022-09-03T08:27:36;2.63;;;1.10;;
56291;SDS011;54008;53.606;9.462;2022-09-03T08:30:01;4.30;;;1.13;;
56291;SDS011;54008;53.606;9.462;2022-09-03T08:32:28;3.50;;;1.10;;
56291;SDS011;54008;53.606;9.462;2022-09-03T08:34:53;3.78;;;1.33;;
56291;SDS011;54008;53.606;9.462;2022-09-03T08:37:18;3.90;;;1.17;;
56291;SDS011;54008;53.606;9.462;2022-09-03T08:39:44;2.07;;;1.37;;
56291;SDS011;54008;53.606;9.462;2022-09-03T08:42:18;4.03;;;1.25;;
56291;SDS011;54008;53.606;9.462;2022-09-03T08:44:52;3.70;;;1.20;;
56291;SDS011;54008;53.606;9.462;2022-09-03T08:47:21;4.82;;;1.25;;
56291;SDS011;54008;53.606;9.462;2022-09-03T08:52:47;3.25;;;1.38;;
56291;SDS011;54008;53.606;9.462;2022-09-03T08:55:16;6.78;;;1.27;;
56291;SDS011;54008;53.606;9.462;2022-09-03T08:57:52;1.52;;;1.20;;
56291;SDS011;54008;53.606;9.462;2022-09-03T09:00:22;5.07;;;1.13;;
56291;SDS011;54008;53.606;9.462;2022-09-03T09:02:52;5.53;;;1.30;;
56291;SDS011;54008;53.606;9.462;2022-09-03T09:08:27;3.15;;;1.10;;
56291;SDS011;54008;53.606;9.462;2022-09-03T09:14:01;2.55;;;0.85;;
56291;SDS011;54008;53.606;9.462;2022-09-03T09:21:36;4.80;;;1.52;;
56291;SDS011;54008;53.606;9.462;2022-09-03T09:24:12;2.17;;;1.00;;
56291;SDS011;54008;53.606;9.462;2022-09-03T09:26:46;2.28;;;1.20;;
56291;SDS011;54008;53.606;9.462;2022-09-03T09:29:12;6.18;;;1.45;;
56291;SDS011;54008;53.606;9.462;2022-09-03T09:31:39;2.75;;;1.35;;
56291;SDS011;54008;53.606;9.462;2022-09-03T09:34:08;2.97;;;1.20;;
56291;SDS011;54008;53.606;9.462;2022-09-03T09:36:55;5.07;;;1.23;;
56291;SDS011;54008;53.606;9.462;2022-09-03T09:39:20;3.05;;;1.15;;
56291;SDS011;54008;53.606;9.462;2022-09-03T09:41:56;3.45;;;1.17;;
56291;SDS011;54008;53.606;9.462;2022-09-03T09:44:39;4.63;;;1.05;;
56291;SDS011;54008;53.606;9.462;2022-09-03T09:47:11;7.57;;;1.08;;
56291;SDS011;54008;53.606;9.462;2022-09-03T09:52:12;2.78;;;1.30;;
56291;SDS011;54008;53.606;9.462;2022-09-03T09:54:39;1.95;;;0.90;;
56291;SDS011;54008;53.606;9.462;2022-09-03T09:57:07;2.95;;;1.17;;
56291;SDS011;54008;53.606;9.462;2022-09-03T09:59:42;3.05;;;0.90;;
56291;SDS011;54008;53.606;9.462;2022-09-03T10:02:13;3.38;;;1.30;;
56291;SDS011;54008;53.606;9.462;2022-09-03T10:04:39;4.05;;;0.80;;
56291;SDS011;54008;53.606;9.462;2022-09-03T10:07:27;1.80;;;1.05;;
56291;SDS011;54008;53.606;9.462;2022-09-03T10:10:15;3.13;;;0.80;;
56291;SDS011;54008;53.606;9.462;2022-09-03T10:12:45;4.18;;;1.20;;
56291;SDS011;54008;53.606;9.462;2022-09-03T10:18:17;6.53;;;1.55;;
56291;SDS011;54008;53.606;9.462;2022-09-03T10:24:00;6.05;;;1.00;;
56291;SDS011;54008;53.606;9.462;2022-09-03T10:26:39;4.68;;;0.80;;
56291;SDS011;54008;53.606;9.462;2022-09-03T10:29:06;6.18;;;1.00;;
56291;SDS011;54008;53.606;9.462;2022-09-03T10:31:38;6.00;;;1.27;;
56291;SDS011;54008;53.606;9.462;2022-09-03T10:34:24;3.38;;;0.70;;
56291;SDS011;54008;53.606;9.462;2022-09-03T10:37:10;2.28;;;1.08;;
56291;SDS011;54008;53.606;9.462;2022-09-03T10:56:24;3.03;;;1.02;;
56291;SDS011;54008;53.606;9.462;2022-09-03T11:05:12;2.33;;;1.00;;
56291;SDS011;54008;53.606;9.462;2022-09-03T11:07:44;3.10;;;1.00;;
56291;SDS011;54008;53.606;9.462;2022-09-03T11:15:23;7.30;;;1.30;;
56291;SDS011;54008;53.606;9.462;2022-09-03T11:17:58;3.95;;;1.00;;
56291;SDS011;54008;53.606;9.462;2022-09-03T11:20:27;2.08;;;0.98;;
56291;SDS011;54008;53.606;9.462;2022-09-03T11:22:55;2.20;;;0.82;;
56291;SDS011;54008;53.606;9.462;2022-09-03T11:25:26;9.10;;;1.10;;
56291;SDS011;54008;53.606;9.462;2022-09-03T11:28:02;2.90;;;1.40;;
56291;SDS011;54008;53.606;9.462;2022-09-03T11:31:01;3.67;;;1.30;;
56291;SDS011;54008;53.606;9.462;2022-09-03T11:33:28;1.92;;;1.08;;
56291;SDS011;54008;53.606;9.462;2022-09-03T11:35:59;4.00;;;0.70;;
56291;SDS011;54008;53.606;9.462;2022-09-03T11:38:26;4.45;;;1.30;;
56291;SDS011;54008;53.606;9.462;2022-09-03T11:43:26;1.60;;;1.05;;
56291;SDS011;54008;53.606;9.462;2022-09-03T11:46:04;2.05;;;1.15;;
56291;SDS011;54008;53.606;9.462;2022-09-03T11:48:37;4.13;;;1.00;;
56291;SDS011;54008;53.606;9.462;2022-09-03T11:51:17;3.15;;;0.90;;
56291;SDS011;54008;53.606;9.462;2022-09-03T11:53:51;2.75;;;1.25;;
56291;SDS011;54008;53.606;9.462;2022-09-03T11:56:18;5.93;;;1.40;;
56291;SDS011;54008;53.606;9.462;2022-09-03T11:58:44;1.05;;;0.70;;
56291;SDS011;54008;53.606;9.462;2022-09-03T12:01:11;2.53;;;0.82;;
56291;SDS011;54008;53.606;9.462;2022-09-03T12:03:58;5.57;;;1.20;;
56291;SDS011;54008;53.606;9.462;2022-09-03T12:09:16;3.88;;;1.30;;
56291;SDS011;54008;53.606;9.462;2022-09-03T12:12:26;3.50;;;1.55;;
56291;SDS011;54008;53.606;9.462;2022-09-03T12:14:57;4.20;;;1.25;;
56291;SDS011;54008;53.606;9.462;2022-09-03T12:17:47;2.75;;;1.00;;
56291;SDS011;54008;53.606;9.462;2022-09-03T12:20:40;4.05;;;1.20;;
56291;SDS011;54008;53.606;9.462;2022-09-03T12:23:06;2.15;;;0.98;;
56291;SDS011;54008;53.606;9.462;2022-09-03T12:25:35;1.80;;;1.00;;
56291;SDS011;54008;53.606;9.462;2022-09-03T12:28:10;6.38;;;1.80;;
56291;SDS011;54008;53.606;9.462;2022-09-03T12:30:40;4.38;;;1.10;;
56291;SDS011;54008;53.606;9.462;2022-09-03T12:33:06;1.30;;;0.80;;
56291;SDS011;54008;53.606;9.462;2022-09-03T12:35:33;4.07;;;0.88;;
56291;SDS011;54008;53.606;9.462;2022-09-03T12:37:58;2.20;;;0.93;;
56291;SDS011;54008;53.606;9.462;2022-09-03T12:40:25;4.40;;;1.23;;
56291;SDS011;54008;53.606;9.462;2022-09-03T12:42:52;3.22;;;0.82;;
56291;SDS011;54008;53.606;9.462;2022-09-03T12:45:20;7.30;;;1.02;;
56291;SDS011;54008;53.606;9.462;2022-09-03T12:47:47;3.75;;;1.33;;
56291;SDS011;54008;53.606;9.462;2022-09-03T12:50:17;1.67;;;0.90;;
56291;SDS011;54008;53.606;9.462;2022-09-03T12:58:18;4.93;;;1.17;;
56291;SDS011;54008;53.606;9.462;2022-09-03T13:00:49;2.33;;;0.80;;
56291;SDS011;54008;53.606;9.462;2022-09-03T13:03:28;4.03;;;1.48;;
56291;SDS011;54008;53.606;9.462;2022-09-03T13:05:59;2.97;;;1.00;;
56291;SDS011;54008;53.606;9.462;2022-09-03T13:08:30;2.85;;;1.20;;
56291;SDS011;54008;53.606;9.462;2022-09-03T13:11:02;2.80;;;0.90;;
56291;SDS011;54008;53.606;9.462;2022-09-03T13:13:33;4.47;;;1.00;;
56291;SDS011;54008;53.606;9.462;2022-09-03T13:18:42;3.38;;;1.02;;
56291;SDS011;54008;53.606;9.462;2022-09-03T13:24:04;2.42;;;1.10;;
56291;SDS011;54008;53.606;9.462;2022-09-03T13:26:50;3.28;;;1.10;;
56291;SDS011;54008;53.606;9.462;2022-09-03T13:32:10;1.58;;;0.77;;
56291;SDS011;54008;53.606;9.462;2022-09-03T13:35:36;3.60;;;1.00;;
56291;SDS011;54008;53.606;9.462;2022-09-03T13:40:44;6.00;;;1.10;;
56291;SDS011;54008;53.606;9.462;2022-09-03T13:46:16;2.47;;;0.88;;
56291;SDS011;54008;53.606;9.462;2022-09-03T13:48:48;1.40;;;0.80;;
56291;SDS011;54008;53.606;9.462;2022-09-03T13:51:42;2.40;;;0.98;;
56291;SDS011;54008;53.606;9.462;2022-09-03T13:54:22;2.03;;;1.10;;
56291;SDS011;54008;53.606;9.462;2022-09-03T14:00:05;2.67;;;1.13;;
56291;SDS011;54008;53.606;9.462;2022-09-03T14:02:56;5.80;;;0.90;;
56291;SDS011;54008;53.606;9.462;2022-09-03T14:05:42;1.90;;;1.10;;
56291;SDS011;54008;53.606;9.462;2022-09-03T14:16:37;1.80;;;0.82;;
56291;SDS011;54008;53.606;9.462;2022-09-03T14:25:03;4.90;;;1.25;;
56291;SDS011;54008;53.606;9.462;2022-09-03T14:27:35;3.53;;;1.20;;
56291;SDS011;54008;53.606;9.462;2022-09-03T14:30:02;4.00;;;1.02;;
56291;SDS011;54008;53.606;9.462;2022-09-03T14:32:41;6.22;;;1.27;;
56291;SDS011;54008;53.606;9.462;2022-09-03T14:35:27;4.13;;;1.20;;
56291;SDS011;54008;53.606;9.462;2022-09-03T14:46:45;1.85;;;0.95;;
56291;SDS011;54008;53.606;9.462;2022-09-03T14:54:34;4.05;;;1.30;;
56291;SDS011;54008;53.606;9.462;2022-09-03T14:57:12;6.07;;;1.20;;
56291;SDS011;54008;53.606;9.462;2022-09-03T15:05:45;3.50;;;1.15;;
56291;SDS011;54008;53.606;9.462;2022-09-03T15:11:22;5.78;;;1.83;;
56291;SDS011;54008;53.606;9.462;2022-09-03T15:14:02;3.63;;;1.08;;
56291;SDS011;54008;53.606;9.462;2022-09-03T15:16:52;3.13;;;1.27;;
56291;SDS011;54008;53.606;9.462;2022-09-03T15:19:31;3.40;;;1.27;;
56291;SDS011;54008;53.606;9.462;2022-09-03T15:22:13;6.30;;;1.30;;
56291;SDS011;54008;53.606;9.462;2022-09-03T15:24:53;4.93;;;1.40;;
56291;SDS011;54008;53.606;9.462;2022-09-03T15:27:37;12.23;;;2.05;;
56291;SDS011;54008;53.606;9.462;2022-09-03T15:30:32;1.95;;;1.30;;
56291;SDS011;54008;53.606;9.462;2022-09-03T15:36:14;5.85;;;1.20;;
56291;SDS011;54008;53.606;9.462;2022-09-03T15:38:53;4.00;;;1.02;;
56291;SDS011;54008;53.606;9.462;2022-09-03T15:44:17;3.15;;;1.17;;
56291;SDS011;54008;53.606;9.462;2022-09-03T15:51:57;2.77;;;0.97;;
56291;SDS011;54008;53.606;9.462;2022-09-03T15:57:02;8.20;;;1.10;;
56291;SDS011;54008;53.606;9.462;2022-09-03T15:59:39;6.97;;;1.45;;
56291;SDS011;54008;53.606;9.462;2022-09-03T16:02:07;3.25;;;1.30;;
56291;SDS011;54008;53.606;9.462;2022-09-03T16:04:58;2.67;;;0.73;;
56291;SDS011;54008;53.606;9.462;2022-09-03T16:10:06;2.85;;;1.10;;
56291;SDS011;54008;53.606;9.462;2022-09-03T16:15:47;2.85;;;1.10;;
56291;SDS011;54008;53.606;9.462;2022-09-03T16:18:29;5.55;;;1.23;;
56291;SDS011;54008;53.606;9.462;2022-09-03T16:24:15;2.30;;;1.13;;
56291;SDS011;54008;53.606;9.462;2022-09-03T16:26:57;3.55;;;1.40;;
56291;SDS011;54008;53.606;9.462;2022-09-03T16:29:29;2.55;;;1.27;;
56291;SDS011;54008;53.606;9.462;2022-09-03T16:35:04;3.13;;;1.10;;
56291;SDS011;54008;53.606;9.462;2022-09-03T16:43:00;2.50;;;1.00;;
56291;SDS011;54008;53.606;9.462;2022-09-03T16:48:21;2.83;;;0.90;;
56291;SDS011;54008;53.606;9.462;2022-09-03T16:50:59;1.70;;;0.93;;
56291;SDS011;54008;53.606;9.462;2022-09-03T16:53:34;2.38;;;1.00;;
56291;SDS011;54008;53.606;9.462;2022-09-03T17:01:31;3.03;;;1.52;;
56291;SDS011;54008;53.606;9.462;2022-09-03T17:04:17;1.65;;;0.82;;
56291;SDS011;54008;53.606;9.462;2022-09-03T17:09:43;2.30;;;1.20;;
56291;SDS011;54008;53.606;9.462;2022-09-03T17:15:19;2.17;;;1.63;;
56291;SDS011;54008;53.606;9.462;2022-09-03T17:18:25;5.05;;;1.30;;
56291;SDS011;54008;53.606;9.462;2022-09-03T17:21:04;2.67;;;1.00;;
56291;SDS011;54008;53.606;9.462;2022-09-03T17:23:47;2.05;;;0.93;;
56291;SDS011;54008;53.606;9.462;2022-09-03T17:37:15;3.97;;;1.00;;
56291;SDS011;54008;53.606;9.462;2022-09-03T17:43:12;4.10;;;1.02;;
56291;SDS011;54008;53.606;9.462;2022-09-03T17:45:52;3.15;;;1.30;;
56291;SDS011;54008;53.606;9.462;2022-09-03T17:54:03;2.95;;;1.58;;
56291;SDS011;54008;53.606;9.462;2022-09-03T17:59:52;2.20;;;1.10;;
56291;SDS011;54008;53.606;9.462;2022-09-03T18:04:43;6.15;;;1.08;;
56291;SDS011;54008;53.606;9.462;2022-09-03T18:07:20;3.55;;;0.85;;
56291;SDS011;54008;53.606;9.462;2022-09-03T18:09:55;2.45;;;1.40;;
56291;SDS011;54008;53.606;9.462;2022-09-03T18:15:28;6.63;;;1.67;;
56291;SDS011;54008;53.606;9.462;2022-09-03T18:18:02;5.82;;;1.55;;
56291;SDS011;54008;53.606;9.462;2022-09-03T18:20:36;5.30;;;1.70;;
56291;SDS011;54008;53.606;9.462;2022-09-03T18:23:30;4.30;;;1.58;;
56291;SDS011;54008;53.606;9.462;2022-09-03T18:26:24;6.53;;;1.90;;
56291;SDS011;54008;53.606;9.462;2022-09-03T18:32:18;9.77;;;1.30;;
56291;SDS011;54008;53.606;9.462;2022-09-03T18:35:02;3.28;;;1.35;;
56291;SDS011;54008;53.606;9.462;2022-09-03T18:37:46;5.03;;;1.55;;
56291;SDS011;54008;53.606;9.462;2022-09-03T18:40:35;1.90;;;1.20;;
56291;SDS011;54008;53.606;9.462;2022-09-03T18:43:32;4.80;;;1.20;;
56291;SDS011;54008;53.606;9.462;2022-09-03T18:49:42;2.92;;;1.30;;
56291;SDS011;54008;53.606;9.462;2022-09-03T18:52:41;2.58;;;1.77;;
56291;SDS011;54008;53.606;9.462;2022-09-03T19:01:20;4.25;;;1.25;;
56291;SDS011;54008;53.606;9.462;2022-09-03T19:04:23;9.07;;;1.38;;
56291;SDS011;54008;53.606;9.462;2022-09-03T19:10:21;1.42;;;1.00;;
56291;SDS011;54008;53.606;9.462;2022-09-03T19:13:19;3.58;;;1.42;;
56291;SDS011;54008;53.606;9.462;2022-09-03T19:16:17;1.83;;;1.30;;
56291;SDS011;54008;53.606;9.462;2022-09-03T19:19:22;2.95;;;1.30;;
56291;SDS011;54008;53.606;9.462;2022-09-03T19:22:32;3.83;;;1.42;;
56291;SDS011;54008;53.606;9.462;2022-09-03T19:25:18;3.05;;;1.70;;
56291;SDS011;54008;53.606;9.462;2022-09-03T19:28:11;3.17;;;1.75;;
56291;SDS011;54008;53.606;9.462;2022-09-03T19:31:04;3.20;;;1.70;;